Du har inga inställningar för hoppväder.nu

Hoppväder.nu

Senast uppdaterat 05:23

UTC-tid

2021-03-01 kl. 04:23


Sol och måne

Solen går upp 6:50 och går ner 17:15 (beräknade cirkatider)
Nästa fullmåne blir om 27 dagar (2021-03-28)

METAR

ESSA (Arlanda, Stockholm)
(33 minuter sedan)
ESSA 010350Z 21006KT CAVOK M01/M02 Q1024 RWY 01L CLEAR AND DRY 51-100 PCT BA GOOD RWY 08 CLEAR AND DRY 51-100 PCT BA GOOD RWY 01R CLEAR AND DRY 51-100 PCT BA GOOD NOSIG=



ESSD (Borlänge)
(33 minuter sedan)
ESSD 010350Z AUTO VRB01KT 9999 NCD M02/M02 Q1022=



EFMA (Mariehamn)
(33 minuter sedan)
EFMA 010350Z AUTO 23005KT 200V270 CAVOK 04/M01 Q1023=



ESOW (Västerås)
(33 minuter sedan)
ESOW 010350Z AUTO 23006KT 200V260 9999 NCD 02/M01 Q1025=






TAF

ESSA (Arlanda, Stockholm)
(293 minuter sedan)
ESSA 282330Z 0100/0124 25003KT CAVOK PROB40 0101/0106 4000 BR=



ESSD (Borlänge)
ESSD



EFMA (Mariehamn)
(121 minuter sedan)
EFMA 010222Z 0103/0112 23005KT CAVOK BECMG 0107/0109 29013KT=



ESOW (Västerås)
ESOW





Kodnycklar till TAF och METAR






LHP

(Gryttjom är område se34e i Delområde 1)

Prognos är inte uppdaterad






Preliminär prognos